Airfield :
LOGIN :

Register | Disclaimer

   EN    FR    IT 

 










Legend :    VFR   Marginal VFR   IFR   Intensive IFR   Very Intensive IFR
Visi :
Ceiling :
>= 8 km
>= 3000ft
5 to 8 km
1000 to 3000 ft
1500m to 5 km
500 to 1000 ft
800 to 1500m
200 to 500 ft
< 800m
< 200 ft
Symbols :   Thunderstorms  Fog  Heavy snow  Heavy precipitations  Wind > 20 kt
SIGMETs :     Misc.  Thunderstorms  Icing  Turbulence  Mountain Waves  Volcanic Ashes






- Airport Elevation : 290 ft
- IATA code : LAI


LFRO - Lannion

CURRENT METAR :
  • 250700Z AUTO 20004KT 0500 R29/0650N FZFG VV/// M00/M00 Q1032

EXPIRED METARs :
  • 250630Z AUTO 20004KT 0600 0550 R29/0750N FZFG VV/// M00/M00 Q1032
  • 250600Z AUTO 21004KT 0550 0500 R29/0650N FZFG VV/// M01/M01 Q1032
  • 250530Z AUTO 18004KT 0300 R29/0375N FZFG VV/// M01/M01 Q1031
  • 250500Z AUTO 16004KT 0300 R29/0375N FZFG VV/// M01/M01 Q1031
  • 250430Z AUTO 18004KT 0300 0250 R29/0325N FZFG VV/// M00/M00 Q1031

Expired Forecast.



MET'MAP, your aeronautical weather chart ! - Copyright ORBIFLY December 2007 - Disclaimer

ORBIFLY MET'MAP TEAM :

Programming & Development : Alexandra Zaïnal
Original concept : Baudouin d'Aumeries
Technical & hardware support : Manuel Goepfert
Assistance : Marc-Olivier Méhu

Contact : metmap@orbifly.com




SOURCES & CREDITS :

   NOAA